• Join FlightAware (Why Join?)
  • Login
  • US Flag 
11:07AM EST


 

Airport Tracker/Info


-or-


 

Live Flight TrackerFlight Track Log ✈ N774LA ✈ 14-Jun-2013 ✈ SCEL / SCL - KMIA

Flight Track Log - Related Links

Times and Time Zones

All times are in EDT time to prevent confusion due to time zone crossing. See the N774LA flight status page for this flight to view local times or setup timezone preferences in your user account.

Time Position Orientation Groundspeed Altitude Reporting Facility
EDT Latitude Longitude Course Direction KTS MPH feet Rate Location/Type
07:25AM -32.5206 -70.9663 350° North  Level Estimated
07:26AM -32.3817 -70.9947 350° North  Level Estimated
07:27AM -32.2428 -71.0230 350° North  Level Estimated
07:28AM -32.1040 -71.0512 350° North  Level Estimated
07:29AM -31.9651 -71.0794 350° North  Level Estimated
07:30AM -31.8262 -71.1074 350° North  Level Estimated
07:31AM -31.6873 -71.1354 350° North  Level Estimated
07:32AM -31.5484 -71.1633 350° North  Level Estimated
07:33AM -31.4095 -71.1911 350° North  Level Estimated
07:34AM -31.2705 -71.2188 350° North  Level Estimated
07:35AM -31.1316 -71.2465 350° North  Level Estimated
07:36AM -30.9927 -71.2740 350° North  Level Estimated
07:37AM -30.8538 -71.3015 350° North  Level Estimated
07:38AM -30.7148 -71.3289 350° North  Level Estimated
07:39AM -30.5759 -71.3562 350° North  Level Estimated
07:40AM -30.4369 -71.3835 350° North  Level Estimated
07:41AM -30.2986 -71.4146 349° North  Level FlightAware Approximate
07:42AM -30.1602 -71.4457 349° North  Level FlightAware Approximate
07:43AM -30.0219 -71.4767 349° North  Level FlightAware Approximate
07:44AM -29.8835 -71.5076 349° North  Level FlightAware Approximate
07:45AM -29.7451 -71.5384 349° North  Level FlightAware Approximate
07:46AM -29.6068 -71.5691 349° North  Level FlightAware Approximate
07:47AM -29.4684 -71.5998 349° North  Level FlightAware Approximate
07:48AM -29.3300 -71.6303 349° North  Level FlightAware Approximate
07:49AM -29.1916 -71.6608 349° North  Level FlightAware Approximate
07:50AM -29.0532 -71.6912 349° North  Level FlightAware Approximate
07:51AM -28.9147 -71.7215 349° North  Level FlightAware Approximate
07:52AM -28.7763 -71.7518 349° North  Level FlightAware Approximate
07:53AM -28.6379 -71.7820 349° North  Level FlightAware Approximate
07:54AM -28.4995 -71.8120 349° North  Level FlightAware Approximate
07:55AM -28.3610 -71.8420 349° North  Level FlightAware Approximate
07:56AM -28.2226 -71.8719 349° North  Level FlightAware Approximate
07:57AM -28.0841 -71.9018 349° North  Level FlightAware Approximate
07:58AM -27.9457 -71.9316 349° North  Level FlightAware Approximate
07:59AM -27.8072 -71.9613 349° North  Level FlightAware Approximate
07:59AM 25.7900 -80.2840 349° North 156 180  Level FlightAware
07:59AM 25.7960 -80.2950 301° West 98 113  Level FlightAware
08:02AM 25.7970 -80.2940 42° Northeast 23 26  Level FlightAware
08:02AM 25.7950 -80.2920 138° Southeast 25 29  Level FlightAware
08:03AM 25.7940 -80.2890 110° East 29 33  Level FlightAware
08:03AM 25.7920 -80.2890 180° South 17 20  Level FlightAware
08:03AM 25.7900 -80.2890 180° South 27 31  Level FlightAware
08:04AM 25.7890 -80.2890 180° South 29 33  Level FlightAware
08:04AM 25.7890 -80.2900 270° West 15 17  Level FlightAware
08:04AM 25.7890 -80.2930 270° West 19 22  Level FlightAware